createdAt,value
2022-10-28T00:01:26.045Z,100186.18
2022-10-28T00:03:56.567Z,100186.34
2022-10-28T00:06:33.597Z,100187.07
2022-10-28T00:09:05.551Z,100184.36
2022-10-28T00:11:36.212Z,100180.87
2022-10-28T00:14:05.952Z,100178.82
2022-10-28T00:16:35.773Z,100177.24
2022-10-28T00:19:05.505Z,100172.87
2022-10-28T00:21:37.104Z,100174.70
2022-10-28T00:24:05.848Z,100172.62
2022-10-28T00:26:36.649Z,100170.34
2022-10-28T00:29:07.055Z,100167.93
2022-10-28T00:31:37.858Z,100163.94
2022-10-28T00:34:09.427Z,100166.11
2022-10-28T00:36:40.663Z,100168.23
2022-10-28T00:39:18.013Z,100161.20
2022-10-28T00:41:50.909Z,100158.11
2022-10-28T00:44:40.794Z,100156.23
2022-10-28T00:47:26.851Z,100147.70
2022-10-28T00:50:13.584Z,100151.31
2022-10-28T00:52:47.087Z,100150.17
2022-10-28T00:55:16.433Z,100150.66
2022-10-28T00:57:46.236Z,100148.38
2022-10-28T01:00:15.332Z,100149.03
2022-10-28T01:02:50.525Z,100148.31
2022-10-28T01:05:30.142Z,100144.75
2022-10-28T01:08:01.794Z,100140.44
2022-10-28T01:10:51.309Z,100138.41
2022-10-28T01:13:26.637Z,100139.64
2022-10-28T01:16:07.535Z,100138.63
2022-10-28T01:18:56.369Z,100135.85
2022-10-28T01:21:41.078Z,100136.23
2022-10-28T01:24:08.706Z,100136.59
2022-10-28T01:26:39.488Z,100134.15
2022-10-28T01:29:45.773Z,100131.35
2022-10-28T01:32:44.022Z,100130.34
2022-10-28T01:35:28.171Z,100132.16
2022-10-28T01:38:12.571Z,100133.77
2022-10-28T01:40:59.231Z,100133.45
2022-10-28T01:43:53.852Z,100131.98
2022-10-28T01:46:41.444Z,100127.95
2022-10-28T01:49:35.150Z,100123.67
2022-10-28T01:52:07.564Z,100123.19
2022-10-28T01:54:38.035Z,100121.23
2022-10-28T01:57:05.908Z,100119.65
2022-10-28T01:59:35.502Z,100118.30
2022-10-28T02:04:36.884Z,100114.54
2022-10-28T02:07:05.715Z,100109.88
2022-10-28T02:10:16.298Z,100104.36
2022-10-28T02:12:48.060Z,100103.48
2022-10-28T02:15:47.390Z,100099.04
2022-10-28T02:18:31.586Z,100091.81
2022-10-28T02:21:06.201Z,100090.92
2022-10-28T02:23:56.102Z,100087.35
2022-10-28T02:26:38.970Z,100088.40
2022-10-28T02:29:11.591Z,100084.88
2022-10-28T02:32:02.095Z,100080.41
2022-10-28T02:34:39.247Z,100080.00
2022-10-28T02:37:13.614Z,100079.08
2022-10-28T02:39:47.861Z,100076.46
2022-10-28T02:42:24.330Z,100074.42
2022-10-28T02:45:00.357Z,100074.98
2022-10-28T02:47:33.448Z,100074.51
2022-10-28T02:50:10.409Z,100070.26
2022-10-28T02:52:43.725Z,100066.15
2022-10-28T02:55:11.748Z,100068.27
2022-10-28T02:57:44.932Z,100063.86
2022-10-28T03:00:17.965Z,100065.67
2022-10-28T03:02:46.353Z,100066.27
2022-10-28T03:05:14.525Z,100069.46
2022-10-28T03:07:42.853Z,100068.23
2022-10-28T03:10:10.868Z,100069.29
2022-10-28T03:12:38.843Z,100068.64
2022-10-28T03:15:07.042Z,100070.17
2022-10-28T03:17:34.721Z,100064.44
2022-10-28T03:20:02.426Z,100061.47
2022-10-28T03:22:30.185Z,100059.56
2022-10-28T03:24:58.138Z,100060.77
2022-10-28T03:27:25.842Z,100057.61
2022-10-28T03:29:53.578Z,100059.58
2022-10-28T03:34:49.967Z,100057.47
2022-10-28T03:37:17.730Z,100056.42
2022-10-28T03:39:45.393Z,100053.94
2022-10-28T03:42:13.177Z,100056.59
2022-10-28T03:44:40.871Z,100052.89
2022-10-28T03:47:08.551Z,100053.26
2022-10-28T03:49:36.816Z,100052.91
2022-10-28T03:52:06.181Z,100048.01
2022-10-28T03:54:34.325Z,100044.80
2022-10-28T03:57:02.075Z,100044.36
2022-10-28T03:59:29.884Z,100040.46
2022-10-28T04:01:57.614Z,100042.95
2022-10-28T04:04:28.421Z,100043.34
2022-10-28T04:06:58.902Z,100038.18
2022-10-28T04:09:26.618Z,100036.92
2022-10-28T04:11:54.325Z,100034.26
2022-10-28T04:14:22.003Z,100030.86
2022-10-28T04:16:49.647Z,100033.88
2022-10-28T04:19:17.330Z,100029.35
2022-10-28T04:21:45.061Z,100024.89
2022-10-28T04:24:15.427Z,100026.61
2022-10-28T04:26:43.215Z,100024.11
2022-10-28T04:29:10.875Z,100023.39
2022-10-28T04:31:38.703Z,100018.92
2022-10-28T04:34:06.475Z,100015.27
2022-10-28T04:36:34.241Z,100010.81
2022-10-28T04:39:02.022Z,100012.31
2022-10-28T04:41:29.753Z,100012.19
2022-10-28T04:43:57.500Z,100014.92
2022-10-28T04:46:25.270Z,100009.42
2022-10-28T04:48:53.079Z,100002.52
2022-10-28T04:51:21.000Z,100006.79
2022-10-28T04:53:50.583Z,100004.59
2022-10-28T04:56:18.261Z,100005.02
2022-10-28T04:58:48.583Z,100007.11
2022-10-28T05:01:16.496Z,100007.55
2022-10-28T05:03:45.074Z,100008.60
2022-10-28T05:06:12.858Z,100009.20
2022-10-28T05:08:40.599Z,100009.80
2022-10-28T05:11:08.363Z,100009.35
2022-10-28T05:13:36.061Z,100006.84
2022-10-28T05:16:04.375Z,100008.45
2022-10-28T05:18:32.157Z,100004.39
2022-10-28T05:20:59.949Z,100006.39
2022-10-28T05:23:30.770Z,100008.96
2022-10-28T05:25:59.099Z,100005.17
2022-10-28T05:28:26.849Z,100005.30
2022-10-28T05:30:54.913Z,100001.02
2022-10-28T05:33:22.808Z,99999.71
2022-10-28T05:35:51.387Z,99998.56
2022-10-28T05:38:19.113Z,99998.08
2022-10-28T05:40:46.875Z,99999.54
2022-10-28T05:43:14.928Z,99999.57
2022-10-28T05:45:42.618Z,99999.36
2022-10-28T05:48:10.331Z,99992.77
2022-10-28T05:50:38.080Z,99994.86
2022-10-28T05:53:05.722Z,99994.20
2022-10-28T05:55:35.430Z,99997.13
2022-10-28T05:58:03.286Z,99998.63
2022-10-28T06:00:31.960Z,99997.64
2022-10-28T06:03:12.328Z,99999.54
2022-10-28T06:05:44.524Z,99995.02
2022-10-28T06:08:14.373Z,99998.16
2022-10-28T06:10:57.511Z,100000.54
2022-10-28T06:13:25.296Z,99999.45
2022-10-28T06:15:56.383Z,99998.19
2022-10-28T06:18:25.140Z,100002.65
2022-10-28T06:20:57.817Z,100000.34
2022-10-28T06:23:27.439Z,100004.52
2022-10-28T06:26:00.627Z,100005.48
2022-10-28T06:28:29.933Z,100001.00
2022-10-28T06:31:03.013Z,99995.83
2022-10-28T06:33:34.022Z,100000.48
2022-10-28T06:36:02.274Z,99998.73
2022-10-28T06:38:30.648Z,99999.02
2022-10-28T06:40:58.563Z,99998.74
2022-10-28T06:43:26.751Z,99999.25
2022-10-28T06:45:56.083Z,100000.39
2022-10-28T06:48:25.308Z,100005.05
2022-10-28T06:50:56.795Z,100006.75
2022-10-28T06:53:26.207Z,100001.34
2022-10-28T06:55:58.456Z,100000.02
2022-10-28T06:58:26.870Z,99992.59
2022-10-28T07:01:06.137Z,99995.85
2022-10-28T07:03:49.061Z,100001.75
2022-10-28T07:06:17.512Z,100007.09
2022-10-28T07:08:45.535Z,100014.94
2022-10-28T07:11:13.241Z,100013.41
2022-10-28T07:13:42.459Z,100010.39
2022-10-28T07:16:12.538Z,100010.02
2022-10-28T07:18:40.200Z,100010.22
2022-10-28T07:21:07.889Z,100018.01
2022-10-28T07:23:35.987Z,100020.33
2022-10-28T07:26:04.885Z,100023.48
2022-10-28T07:28:32.530Z,100017.90
2022-10-28T07:31:02.840Z,100012.34
2022-10-28T07:33:31.160Z,100012.61
2022-10-28T07:35:58.877Z,100014.00
2022-10-28T07:38:30.097Z,100021.88
2022-10-28T07:40:58.038Z,100023.99
2022-10-28T07:43:25.904Z,100020.14
2022-10-28T07:45:57.880Z,100011.54
2022-10-28T07:48:25.969Z,100006.08
2022-10-28T07:50:53.678Z,100003.80
2022-10-28T07:53:22.693Z,100001.64
2022-10-28T07:56:01.841Z,100002.53
2022-10-28T07:58:30.544Z,100011.67
2022-10-28T08:01:03.567Z,100011.55
2022-10-28T08:03:38.613Z,100006.19
2022-10-28T08:06:13.720Z,100007.64
2022-10-28T08:08:41.373Z,100014.98
2022-10-28T08:11:22.840Z,100017.05
2022-10-28T08:13:54.190Z,100016.55
2022-10-28T08:16:21.988Z,100018.84
2022-10-28T08:18:49.620Z,100019.98
2022-10-28T08:21:17.635Z,100015.41
2022-10-28T08:23:46.970Z,100013.55
2022-10-28T08:26:16.454Z,100012.11
2022-10-28T08:28:44.354Z,100017.16
2022-10-28T08:31:12.745Z,100023.84
2022-10-28T08:33:45.457Z,100017.60
2022-10-28T08:36:16.018Z,100014.08
2022-10-28T08:38:46.184Z,100005.39
2022-10-28T08:41:36.758Z,100007.24
2022-10-28T08:44:42.859Z,100011.27
2022-10-28T08:47:19.523Z,100004.25
2022-10-28T08:49:55.292Z,100002.61
2022-10-28T08:52:34.284Z,100004.60
2022-10-28T08:55:12.695Z,100008.65
2022-10-28T08:57:49.279Z,100002.77
2022-10-28T09:00:24.578Z,99999.05
2022-10-28T09:03:11.191Z,99996.20
2022-10-28T09:05:41.354Z,100001.83
2022-10-28T09:08:31.718Z,100003.61
2022-10-28T09:11:43.533Z,100002.61
2022-10-28T09:14:28.120Z,99998.95
2022-10-28T09:17:19.176Z,99998.79
2022-10-28T09:19:59.187Z,100007.07
2022-10-28T09:22:49.158Z,100014.75
2022-10-28T09:25:48.889Z,100014.14
2022-10-28T09:28:43.477Z,100008.95
2022-10-28T09:31:30.840Z,100009.64
2022-10-28T09:34:22.862Z,100008.77
2022-10-28T09:36:59.010Z,100008.54
2022-10-28T09:39:41.315Z,100010.39
2022-10-28T09:42:18.427Z,100005.97
2022-10-28T09:44:51.887Z,100001.90
2022-10-28T09:47:25.998Z,99997.50
2022-10-28T09:50:00.004Z,99999.09
2022-10-28T09:52:37.976Z,99998.70
2022-10-28T09:55:20.263Z,99998.00
2022-10-28T09:57:48.601Z,99994.52
2022-10-28T10:00:17.600Z,99991.61
2022-10-28T10:02:45.939Z,99990.04
2022-10-28T10:05:17.389Z,99993.09
2022-10-28T10:07:54.055Z,99990.43
2022-10-28T10:10:49.137Z,99984.23
2022-10-28T10:13:24.322Z,99980.30
2022-10-28T10:15:57.100Z,99971.23
2022-10-28T10:18:29.945Z,99974.34
2022-10-28T10:20:59.227Z,99973.25
2022-10-28T10:23:31.587Z,99968.64
2022-10-28T10:26:12.956Z,99968.27
2022-10-28T10:28:46.996Z,99966.16
2022-10-28T10:31:29.921Z,99962.71
2022-10-28T10:33:58.859Z,99964.17
2022-10-28T10:36:29.253Z,99961.20
2022-10-28T10:38:59.664Z,99960.22
2022-10-28T10:41:45.086Z,99963.52
2022-10-28T10:44:21.596Z,99964.84
2022-10-28T10:46:55.501Z,99967.20
2022-10-28T10:49:23.180Z,99967.48
2022-10-28T10:51:53.225Z,99963.05
2022-10-28T10:54:21.297Z,99963.73
2022-10-28T10:56:49.135Z,99962.98
2022-10-28T10:59:25.168Z,99959.66
2022-10-28T11:01:55.913Z,99955.77
2022-10-28T11:04:27.950Z,99953.35
2022-10-28T11:06:58.137Z,99949.85
2022-10-28T11:09:39.659Z,99948.36
2022-10-28T11:12:32.188Z,99942.11
2022-10-28T11:15:23.215Z,99940.73
2022-10-28T11:18:23.698Z,99939.38
2022-10-28T11:21:07.466Z,99939.75
2022-10-28T11:23:49.364Z,99939.48
2022-10-28T11:26:21.588Z,99943.70
2022-10-28T11:29:02.335Z,99943.90
2022-10-28T11:31:51.357Z,99943.29
2022-10-28T11:34:28.512Z,99939.65
2022-10-28T11:37:13.292Z,99937.48
2022-10-28T11:40:15.613Z,99936.77
2022-10-28T11:43:08.922Z,99933.17
2022-10-28T11:45:53.648Z,99932.02
2022-10-28T11:48:32.836Z,99928.91
2022-10-28T11:51:13.088Z,99921.89
2022-10-28T11:53:59.175Z,99915.84
2022-10-28T11:56:42.408Z,99913.06
2022-10-28T11:59:37.515Z,99910.58
2022-10-28T12:02:17.008Z,99907.90
2022-10-28T12:04:50.931Z,99907.64
2022-10-28T12:07:43.126Z,99909.18
2022-10-28T12:10:48.804Z,99906.36
2022-10-28T12:13:21.598Z,99900.90
2022-10-28T12:16:21.007Z,99896.21
2022-10-28T12:19:14.457Z,99894.89
2022-10-28T12:21:49.663Z,99880.48
2022-10-28T12:24:24.231Z,99876.39
2022-10-28T12:27:00.325Z,99880.20
2022-10-28T12:29:37.431Z,99877.80
2022-10-28T12:32:13.534Z,99879.20
2022-10-28T12:34:54.006Z,99876.47
2022-10-28T12:37:25.922Z,99872.38
2022-10-28T12:40:17.406Z,99870.11
2022-10-28T12:43:02.226Z,99868.61
2022-10-28T12:45:32.363Z,99872.63
2022-10-28T12:48:28.601Z,99871.33
2022-10-28T12:51:17.206Z,99874.16
2022-10-28T12:54:07.906Z,99871.33
2022-10-28T12:57:04.133Z,99874.45
2022-10-28T12:59:37.206Z,99875.19
2022-10-28T13:02:14.865Z,99873.51
2022-10-28T13:04:44.748Z,99869.78
2022-10-28T13:07:44.932Z,99872.38
2022-10-28T13:10:53.910Z,99870.65
2022-10-28T13:13:33.551Z,99873.55
2022-10-28T13:16:23.161Z,99877.11
2022-10-28T13:19:41.264Z,99879.67
2022-10-28T13:25:25.244Z,99880.53
2022-10-28T13:27:58.061Z,99879.35
2022-10-28T13:30:27.351Z,99875.17
2022-10-28T13:33:21.749Z,99873.80
2022-10-28T13:35:51.000Z,99873.59
2022-10-28T13:38:26.980Z,99878.81
2022-10-28T13:40:57.917Z,99878.81
2022-10-28T13:43:50.822Z,99879.40
2022-10-28T13:46:57.069Z,99879.16
2022-10-28T13:49:25.807Z,99878.65
2022-10-28T13:52:21.163Z,99881.92
2022-10-28T13:54:58.912Z,99879.59
2022-10-28T13:57:37.011Z,99881.80
2022-10-28T14:03:16.469Z,99887.13
2022-10-28T14:05:44.255Z,99884.65
2022-10-28T14:08:38.668Z,99882.14
2022-10-28T14:11:08.830Z,99883.98
2022-10-28T14:13:49.021Z,99880.26
2022-10-28T14:16:30.167Z,99878.31
2022-10-28T14:19:11.380Z,99879.64
2022-10-28T14:22:02.086Z,99882.02
2022-10-28T14:24:39.847Z,99877.92
2022-10-28T14:27:08.177Z,99878.56
2022-10-28T14:29:48.936Z,99876.20
2022-10-28T14:32:32.366Z,99875.48
2022-10-28T14:35:18.157Z,99876.91
2022-10-28T14:38:03.269Z,99876.77
2022-10-28T14:40:36.255Z,99873.37
2022-10-28T14:43:26.435Z,99869.77
2022-10-28T14:46:15.732Z,99872.38
2022-10-28T14:48:55.911Z,99870.42
2022-10-28T14:51:39.290Z,99867.82
2022-10-28T14:54:13.627Z,99869.95
2022-10-28T14:56:42.069Z,99867.96
2022-10-28T14:59:21.643Z,99864.52
2022-10-28T15:02:11.395Z,99863.42
2022-10-28T15:04:41.825Z,99863.69
2022-10-28T15:07:18.485Z,99860.05
2022-10-28T15:09:53.428Z,99854.60
2022-10-28T15:12:26.268Z,99857.46
2022-10-28T15:14:56.657Z,99860.44
2022-10-28T15:17:28.193Z,99855.85
2022-10-28T15:19:58.987Z,99853.02
2022-10-28T15:22:33.367Z,99854.63
2022-10-28T15:25:03.314Z,99850.24
2022-10-28T15:27:36.155Z,99853.74
2022-10-28T15:30:25.809Z,99849.52
2022-10-28T15:33:15.920Z,99850.80
2022-10-28T15:35:43.693Z,99847.61
2022-10-28T15:38:28.619Z,99843.15
2022-10-28T15:40:57.601Z,99839.52
2022-10-28T15:43:32.462Z,99840.93
2022-10-28T15:46:16.471Z,99843.25
2022-10-28T15:48:44.202Z,99845.10
2022-10-28T15:51:17.306Z,99842.96
2022-10-28T15:53:46.463Z,99841.39
2022-10-28T15:56:14.347Z,99846.45
2022-10-28T15:58:45.359Z,99847.91
2022-10-28T16:01:39.613Z,99846.72
2022-10-28T16:04:22.994Z,99844.06
2022-10-28T16:06:57.089Z,99844.05
2022-10-28T16:09:34.347Z,99844.70
2022-10-28T16:12:12.036Z,99844.33
2022-10-28T16:14:45.702Z,99844.54
2022-10-28T16:17:24.078Z,99849.33
2022-10-28T16:19:57.871Z,99851.42
2022-10-28T16:22:29.662Z,99850.24
2022-10-28T16:24:58.959Z,99841.61
2022-10-28T16:27:31.288Z,99846.08
2022-10-28T16:29:59.145Z,99846.86
2022-10-28T16:32:30.860Z,99845.04
2022-10-28T16:35:01.079Z,99844.73
2022-10-28T16:37:31.477Z,99855.52
2022-10-28T16:40:00.051Z,99854.11
2022-10-28T16:42:28.057Z,99857.01
2022-10-28T16:44:55.814Z,99857.47
2022-10-28T16:47:29.125Z,99852.98
2022-10-28T16:49:57.553Z,99854.54
2022-10-28T16:52:29.919Z,99851.30
2022-10-28T16:54:58.749Z,99853.25
2022-10-28T16:57:28.911Z,99857.31
2022-10-28T16:59:56.659Z,99856.21
2022-10-28T17:02:28.902Z,99854.23
2022-10-28T17:04:59.055Z,99856.45
2022-10-28T17:07:29.043Z,99849.56
2022-10-28T17:09:57.548Z,99847.29
2022-10-28T17:12:27.462Z,99846.57
2022-10-28T17:14:55.314Z,99847.05
2022-10-28T17:17:23.026Z,99845.36
2022-10-28T17:19:51.339Z,99844.45
2022-10-28T17:22:19.179Z,99842.00
2022-10-28T17:24:47.142Z,99842.45
2022-10-28T17:27:16.145Z,99836.91
2022-10-28T17:29:43.919Z,99841.80
2022-10-28T17:32:12.890Z,99839.40
2022-10-28T17:34:41.023Z,99839.64
2022-10-28T17:37:10.599Z,99838.56
2022-10-28T17:39:38.367Z,99839.77
2022-10-28T17:42:06.227Z,99838.01
2022-10-28T17:44:35.515Z,99835.35
2022-10-28T17:47:03.275Z,99839.81
2022-10-28T17:49:32.935Z,99841.19
2022-10-28T17:52:00.746Z,99841.59
2022-10-28T17:54:30.770Z,99846.80
2022-10-28T17:56:58.530Z,99850.77
2022-10-28T17:59:27.665Z,99843.66
2022-10-28T18:01:55.863Z,99836.46
2022-10-28T18:04:27.894Z,99834.50
2022-10-28T18:06:58.087Z,99836.25
2022-10-28T18:09:29.341Z,99835.54
2022-10-28T18:11:59.886Z,99838.27
2022-10-28T18:14:30.730Z,99836.75
2022-10-28T18:16:59.132Z,99832.96
2022-10-28T18:19:26.975Z,99831.90
2022-10-28T18:21:55.055Z,99827.96
2022-10-28T18:24:25.953Z,99831.04
2022-10-28T18:26:55.987Z,99834.30
2022-10-28T18:29:24.291Z,99839.65
2022-10-28T18:31:52.560Z,99836.16
2022-10-28T18:34:21.369Z,99839.05
2022-10-28T18:36:49.907Z,99838.35
2022-10-28T18:39:17.810Z,99836.91
2022-10-28T18:41:45.586Z,99830.36
2022-10-28T18:44:14.719Z,99831.38
2022-10-28T18:46:42.745Z,99829.05
2022-10-28T18:49:10.485Z,99830.44
2022-10-28T18:51:38.413Z,99825.19
2022-10-28T18:54:06.224Z,99824.77
2022-10-28T18:56:34.405Z,99823.98
2022-10-28T18:59:04.656Z,99824.00
2022-10-28T19:01:33.530Z,99821.73
2022-10-28T19:04:04.620Z,99823.25
2022-10-28T19:06:33.842Z,99820.19
2022-10-28T19:09:05.223Z,99820.73
2022-10-28T19:11:34.338Z,99821.25
2022-10-28T19:14:05.136Z,99823.39
2022-10-28T19:16:36.218Z,99827.18
2022-10-28T19:19:05.949Z,99831.85
2022-10-28T19:21:34.269Z,99831.83
2022-10-28T19:24:02.270Z,99832.14
2022-10-28T19:26:32.061Z,99831.78
2022-10-28T19:29:00.714Z,99829.42
2022-10-28T19:31:30.923Z,99830.14
2022-10-28T19:33:58.703Z,99828.26
2022-10-28T19:36:29.096Z,99836.05
2022-10-28T19:38:58.562Z,99836.54
2022-10-28T19:41:30.822Z,99839.12
2022-10-28T19:44:02.936Z,99841.21
2022-10-28T19:46:33.780Z,99840.00
2022-10-28T19:49:05.955Z,99845.76
2022-10-28T19:51:40.417Z,99843.81
2022-10-28T19:54:15.197Z,99841.02
2022-10-28T19:56:44.777Z,99838.98
2022-10-28T19:59:13.261Z,99837.94
2022-10-28T20:01:41.813Z,99835.09
2022-10-28T20:04:10.329Z,99831.79
2022-10-28T20:06:40.921Z,99831.98
2022-10-28T20:09:08.833Z,99830.02
2022-10-28T20:11:39.513Z,99831.59
2022-10-28T20:14:12.023Z,99825.34
2022-10-28T20:16:44.181Z,99819.66
2022-10-28T20:19:12.492Z,99820.64
2022-10-28T20:21:41.361Z,99814.50
2022-10-28T20:24:09.101Z,99814.27
2022-10-28T20:26:39.189Z,99810.20
2022-10-28T20:29:08.902Z,99812.85
2022-10-28T20:31:39.202Z,99811.42
2022-10-28T20:34:08.210Z,99816.03
2022-10-28T20:36:41.966Z,99819.21
2022-10-28T20:39:13.870Z,99820.20
2022-10-28T20:41:43.467Z,99815.89
2022-10-28T20:44:12.009Z,99816.19
2022-10-28T20:46:40.255Z,99815.26
2022-10-28T20:49:09.088Z,99819.38
2022-10-28T20:51:37.063Z,99818.52
2022-10-28T20:54:05.129Z,99819.63
2022-10-28T20:56:36.584Z,99815.09
2022-10-28T20:59:04.866Z,99814.66
2022-10-28T21:01:39.157Z,99810.05
2022-10-28T21:04:10.909Z,99810.28
2022-10-28T21:06:40.270Z,99814.35
2022-10-28T21:09:11.893Z,99814.36
2022-10-28T21:11:39.727Z,99809.07
2022-10-28T21:14:07.514Z,99803.94
2022-10-28T21:16:35.866Z,99799.66
2022-10-28T21:19:03.834Z,99799.34
2022-10-28T21:21:31.625Z,99802.72
2022-10-28T21:24:02.533Z,99804.15
2022-10-28T21:26:30.241Z,99808.42
2022-10-28T21:28:58.087Z,99812.70
2022-10-28T21:31:25.741Z,99811.98
2022-10-28T21:33:53.996Z,99809.38
2022-10-28T21:36:23.286Z,99807.97
2022-10-28T21:38:56.065Z,99814.16
2022-10-28T21:41:24.587Z,99808.86
2022-10-28T21:43:54.401Z,99808.48
2022-10-28T21:46:24.540Z,99807.38
2022-10-28T21:48:53.614Z,99802.95
2022-10-28T21:51:21.960Z,99796.77
2022-10-28T21:53:50.138Z,99800.16
2022-10-28T21:56:20.213Z,99798.67
2022-10-28T21:58:51.466Z,99798.08
2022-10-28T22:01:22.191Z,99793.42
2022-10-28T22:03:52.504Z,99791.95
2022-10-28T22:06:22.443Z,99792.94
2022-10-28T22:08:54.017Z,99787.98
2022-10-28T22:11:23.679Z,99785.38
2022-10-28T22:13:59.949Z,99790.90
2022-10-28T22:16:30.137Z,99792.85
2022-10-28T22:18:59.949Z,99795.75
2022-10-28T22:21:30.996Z,99794.75
2022-10-28T22:23:59.647Z,99790.38
2022-10-28T22:26:30.305Z,99796.44
2022-10-28T22:28:58.280Z,99797.46
2022-10-28T22:31:29.143Z,99799.98
2022-10-28T22:33:57.905Z,99798.83
2022-10-28T22:36:28.428Z,99794.80
2022-10-28T22:38:57.661Z,99788.73
2022-10-28T22:41:28.586Z,99789.55
2022-10-28T22:43:59.531Z,99788.68
2022-10-28T22:46:31.776Z,99785.05
2022-10-28T22:49:00.297Z,99784.85
2022-10-28T22:51:28.400Z,99781.73
2022-10-28T22:53:56.399Z,99784.94
2022-10-28T22:56:26.730Z,99785.39
2022-10-28T22:58:57.757Z,99788.09
2022-10-28T23:01:27.644Z,99790.42
2022-10-28T23:03:56.259Z,99784.59
2022-10-28T23:06:26.594Z,99782.24
2022-10-28T23:08:54.806Z,99778.17
2022-10-28T23:11:23.335Z,99780.47
2022-10-28T23:13:53.058Z,99779.64
2022-10-28T23:16:22.477Z,99774.98
2022-10-28T23:18:53.053Z,99775.36
2022-10-28T23:21:23.819Z,99773.05
2022-10-28T23:23:58.215Z,99769.28
2022-10-28T23:26:28.471Z,99766.60
2022-10-28T23:28:59.714Z,99769.23
2022-10-28T23:31:29.078Z,99767.10
2022-10-28T23:33:58.317Z,99769.19
2022-10-28T23:36:26.251Z,99769.36
2022-10-28T23:38:56.889Z,99765.83
2022-10-28T23:41:25.242Z,99764.98
2022-10-28T23:43:52.906Z,99760.73
2022-10-28T23:46:21.749Z,99757.75
2022-10-28T23:48:49.414Z,99761.78
2022-10-28T23:51:19.517Z,99760.23
2022-10-28T23:53:47.183Z,99762.78
2022-10-28T23:56:16.147Z,99758.51
2022-10-28T23:58:43.851Z,99759.44
